Time;durP1;ratioP1;P1;durP2;ratioP2;P2;SDS_P1;SDS_P2;PMS_P1;PMS_P2;Temp;Humidity;BMP_temperature;BMP_pressure;BME280_temperature;BME280_humidity;BME280_pressure;Samples;Min_cycle;Max_cycle;Signal;HPM_P1;HPM_P2
2021/08/24 00:05:27;;;;;;;2.88;1.10;;;14.70;99.90;;;;;;12496270;28;20049;-43
2021/08/24 00:11:33;;;;;;;3.13;1.20;;;14.60;99.90;;;;;;12499960;28;20535;-43
2021/08/24 00:17:35;;;;;;;4.53;1.48;;;14.50;99.90;;;;;;12505182;28;20064;-43
2021/08/24 00:23:37;;;;;;;3.03;1.20;;;14.40;99.90;;;;;;12505860;28;20045;-43
2021/08/24 00:29:39;;;;;;;2.95;1.30;;;14.30;99.90;;;;;;12503822;28;20123;-44
2021/08/24 00:35:42;;;;;;;3.67;1.38;;;14.10;99.90;;;;;;12509528;28;20195;-43
2021/08/24 00:41:44;;;;;;;3.28;1.40;;;14.10;99.90;;;;;;12505952;28;20509;-43
2021/08/24 00:47:49;;;;;;;2.40;1.02;;;14.00;99.90;;;;;;12502961;28;21022;-43
2021/08/24 00:53:52;;;;;;;3.25;1.42;;;13.90;99.90;;;;;;12506719;28;20043;-42
2021/08/24 00:59:55;;;;;;;4.30;1.40;;;13.80;99.90;;;;;;12505679;28;20071;-43
2021/08/24 01:06:23;;;;;;;5.03;1.55;;;13.80;99.90;;;;;;12504189;28;20786;-43
2021/08/24 01:13:11;;;;;;;2.17;1.35;;;13.80;99.90;;;;;;12502893;28;20080;-43
2021/08/24 01:19:52;;;;;;;3.55;1.40;;;13.80;99.90;;;;;;12506562;28;20057;-42
2021/08/24 01:26:06;;;;;;;2.78;1.50;;;13.80;99.90;;;;;;12454972;28;20061;-43
2021/08/24 01:32:33;;;;;;;3.03;1.30;;;13.90;99.90;;;;;;12503322;28;20409;-43
2021/08/24 01:39:05;;;;;;;2.45;1.30;;;13.70;99.90;;;;;;12502819;28;20304;-44
2021/08/24 01:45:18;;;;;;;3.13;1.27;;;13.70;99.90;;;;;;12498361;28;20060;-44
2021/08/24 01:51:25;;;;;;;3.05;1.52;;;13.50;99.90;;;;;;12501858;28;20582;-43
2021/08/24 01:57:35;;;;;;;4.35;1.50;;;13.50;99.90;;;;;;12500842;28;20042;-43
2021/08/24 02:03:43;;;;;;;3.63;1.50;;;13.50;99.90;;;;;;12501830;28;20056;-42
2021/08/24 02:09:49;;;;;;;7.00;1.70;;;13.50;99.90;;;;;;12499831;28;20426;-44
2021/08/24 02:15:55;;;;;;;3.00;1.90;;;13.50;99.90;;;;;;12488383;28;20061;-43
2021/08/24 02:22:03;;;;;;;4.75;1.67;;;13.50;99.90;;;;;;12501592;28;20053;-44
2021/08/24 02:28:32;;;;;;;3.30;1.83;;;13.30;99.90;;;;;;12498384;28;20053;-44
2021/08/24 02:34:53;;;;;;;5.60;1.70;;;13.40;99.90;;;;;;12499954;28;20037;-43
2021/08/24 02:41:11;;;;;;;4.13;1.88;;;13.40;99.90;;;;;;12499132;28;20102;-44
2021/08/24 02:47:15;;;;;;;4.65;2.00;;;13.10;99.90;;;;;;12496809;28;20046;-45
2021/08/24 02:53:17;;;;;;;3.63;2.10;;;13.20;99.90;;;;;;12499710;28;20094;-43
2021/08/24 02:59:19;;;;;;;4.53;2.70;;;13.10;99.90;;;;;;12501110;28;20048;-43
2021/08/24 03:05:20;;;;;;;4.82;2.45;;;13.10;99.90;;;;;;12496517;28;20044;-43
2021/08/24 03:11:27;;;;;;;5.75;2.85;;;13.10;99.90;;;;;;12487609;28;20393;-43
2021/08/24 03:17:29;;;;;;;4.60;2.70;;;13.10;99.90;;;;;;12496289;28;20053;-43
2021/08/24 03:23:32;;;;;;;6.78;2.33;;;13.30;99.90;;;;;;12497856;28;20049;-42
2021/08/24 03:29:35;;;;;;;5.63;3.17;;;13.30;99.90;;;;;;12497473;28;20061;-43
2021/08/24 03:35:37;;;;;;;4.47;2.70;;;13.30;99.90;;;;;;12482557;28;20137;-43
2021/08/24 03:41:39;;;;;;;5.38;2.10;;;13.30;99.90;;;;;;12496915;28;20056;-44
2021/08/24 03:47:41;;;;;;;4.03;2.15;;;13.30;99.90;;;;;;12499306;28;20118;-44
2021/08/24 03:53:43;;;;;;;7.00;2.88;;;13.30;99.90;;;;;;12503616;28;20040;-44
2021/08/24 03:59:46;;;;;;;5.57;2.90;;;13.20;99.90;;;;;;12506967;28;20506;-44
2021/08/24 04:06:01;;;;;;;5.32;2.88;;;13.10;99.90;;;;;;12511153;28;20048;-42
2021/08/24 04:12:03;;;;;;;5.20;2.33;;;13.20;99.90;;;;;;12508116;28;20041;-44
2021/08/24 04:18:05;;;;;;;6.03;2.60;;;13.20;99.90;;;;;;12503949;28;20053;-43
2021/08/24 04:24:08;;;;;;;9.55;2.92;;;13.00;99.90;;;;;;12512411;28;20577;-43
2021/08/24 04:30:11;;;;;;;5.47;2.80;;;12.80;99.90;;;;;;12514497;28;20453;-43
2021/08/24 04:36:12;;;;;;;6.20;2.85;;;12.80;99.90;;;;;;12512639;28;20060;-43
2021/08/24 04:42:14;;;;;;;5.03;2.47;;;12.80;99.90;;;;;;12502059;28;20060;-43
2021/08/24 04:48:16;;;;;;;5.85;2.92;;;12.80;99.90;;;;;;12507062;28;20087;-45
2021/08/24 04:54:20;;;;;;;5.18;2.70;;;12.70;99.90;;;;;;12472790;28;20516;-46
2021/08/24 05:00:23;;;;;;;5.25;2.67;;;12.80;99.90;;;;;;12506299;28;20103;-45
2021/08/24 05:06:28;;;;;;;8.07;3.00;;;12.80;99.90;;;;;;12512206;28;20053;-45
2021/08/24 05:12:31;;;;;;;6.57;2.88;;;12.80;99.90;;;;;;12509477;28;20051;-46
2021/08/24 05:18:33;;;;;;;9.32;2.67;;;12.90;99.90;;;;;;12499082;28;20041;-46
2021/08/24 05:24:36;;;;;;;5.13;2.95;;;12.90;99.90;;;;;;12512262;28;20041;-47
2021/08/24 05:30:37;;;;;;;5.53;2.65;;;13.00;99.90;;;;;;12519916;28;20071;-45
2021/08/24 05:36:40;;;;;;;5.43;2.60;;;13.10;99.90;;;;;;12517168;28;20685;-46
2021/08/24 05:42:43;;;;;;;9.15;2.80;;;13.10;99.90;;;;;;12508341;28;20045;-46
2021/08/24 05:48:45;;;;;;;5.68;2.90;;;13.20;99.90;;;;;;12513135;28;20178;-45
2021/08/24 05:54:49;;;;;;;5.90;3.05;;;13.20;99.90;;;;;;12494193;28;20473;-47
2021/08/24 06:00:53;;;;;;;5.22;2.85;;;13.30;99.90;;;;;;12503099;28;20087;-45
2021/08/24 06:06:55;;;;;;;7.30;2.97;;;13.30;99.90;;;;;;12505150;28;20073;-43
2021/08/24 06:12:57;;;;;;;5.20;3.00;;;13.30;99.90;;;;;;12504169;28;20163;-43
2021/08/24 06:19:00;;;;;;;9.15;3.53;;;13.50;99.90;;;;;;12504711;28;20087;-43
2021/08/24 06:25:02;;;;;;;4.32;2.78;;;13.60;99.90;;;;;;12507112;28;20140;-42
2021/08/24 06:31:04;;;;;;;5.45;2.78;;;13.50;99.90;;;;;;12497671;28;20041;-45
2021/08/24 06:37:09;;;;;;;6.70;2.88;;;13.50;99.90;;;;;;12505989;28;20425;-46
2021/08/24 06:43:11;;;;;;;6.43;2.75;;;13.50;99.90;;;;;;12505602;28;20057;-48
2021/08/24 06:49:17;;;;;;;7.60;2.28;;;13.60;99.90;;;;;;12505263;28;20142;-47
2021/08/24 06:55:25;;;;;;;4.00;2.30;;;13.90;99.90;;;;;;12503234;28;20450;-45
2021/08/24 07:01:29;;;;;;;5.18;2.45;;;13.80;99.90;;;;;;12503629;28;20057;-46
2021/08/24 07:07:31;;;;;;;5.68;2.25;;;13.90;99.90;;;;;;12508167;28;20811;-45
2021/08/24 07:13:35;;;;;;;4.32;2.20;;;13.90;99.90;;;;;;12504376;28;20056;-46
2021/08/24 07:19:37;;;;;;;3.97;2.30;;;14.10;99.90;;;;;;12504502;28;20140;-46
2021/08/24 07:25:40;;;;;;;4.68;2.20;;;14.30;99.90;;;;;;12484104;28;20457;-47
2021/08/24 07:31:43;;;;;;;6.38;2.00;;;14.40;99.90;;;;;;12480631;28;20394;-47
2021/08/24 07:37:45;;;;;;;5.38;2.30;;;14.50;99.90;;;;;;12501838;28;20133;-45
2021/08/24 07:43:47;;;;;;;5.18;1.70;;;14.70;99.90;;;;;;12499074;28;20041;-46
2021/08/24 07:49:52;;;;;;;3.70;1.85;;;14.70;99.90;;;;;;12505840;28;20083;-45
2021/08/24 07:55:54;;;;;;;3.95;1.77;;;15.00;99.90;;;;;;12498788;28;20064;-45
2021/08/24 08:02:02;;;;;;;4.50;1.90;;;15.10;99.90;;;;;;12501125;28;20136;-45
2021/08/24 08:08:05;;;;;;;2.95;1.50;;;15.20;99.90;;;;;;12505171;28;20132;-45
2021/08/24 08:14:08;;;;;;;6.07;1.50;;;15.50;99.90;;;;;;12503362;28;20489;-45
2021/08/24 08:20:11;;;;;;;8.00;2.00;;;15.50;99.90;;;;;;12501993;28;20049;-46
2021/08/24 08:26:13;;;;;;;3.65;1.58;;;15.50;99.90;;;;;;12478708;28;20061;-45
2021/08/24 08:32:22;;;;;;;4.95;1.80;;;15.80;99.90;;;;;;12501356;28;20520;-45
2021/08/24 08:38:24;;;;;;;5.03;1.50;;;16.20;99.90;;;;;;12510746;28;20140;-45
2021/08/24 08:45:08;;;;;;;3.42;1.33;;;16.20;99.90;;;;;;12512794;28;20041;-45
2021/08/24 08:51:27;;;;;;;3.20;1.33;;;16.20;99.90;;;;;;12509125;28;20139;-45
2021/08/24 08:57:35;;;;;;;4.00;1.48;;;16.60;99.90;;;;;;12495966;28;20053;-45
2021/08/24 09:03:53;;;;;;;5.03;1.77;;;16.70;99.90;;;;;;12512879;28;20052;-45
2021/08/24 09:09:55;;;;;;;2.80;1.65;;;16.70;99.90;;;;;;12506351;28;20064;-45
2021/08/24 09:16:19;;;;;;;5.78;1.77;;;16.60;99.90;;;;;;12494360;28;20052;-45
2021/08/24 09:22:22;;;;;;;2.80;1.33;;;16.30;99.90;;;;;;12506609;28;20085;-45
2021/08/24 09:28:27;;;;;;;3.72;1.55;;;16.20;99.90;;;;;;12508156;28;20083;-44
2021/08/24 09:34:43;;;;;;;3.30;1.65;;;16.10;99.90;;;;;;12509845;28;20077;-44
2021/08/24 09:40:51;;;;;;;3.20;1.40;;;15.90;99.90;;;;;;12504971;28;20053;-45
2021/08/24 09:47:17;;;;;;;4.53;1.40;;;16.30;99.90;;;;;;12514322;28;20501;-43
2021/08/24 09:53:30;;;;;;;3.60;1.25;;;16.40;99.90;;;;;;12504366;28;21275;-42
2021/08/24 09:59:38;;;;;;;6.10;1.80;;;16.20;99.90;;;;;;12509779;28;20155;-43
2021/08/24 10:05:40;;;;;;;3.70;1.30;;;16.50;99.90;;;;;;12509320;28;20041;-43
2021/08/24 10:11:45;;;;;;;4.60;1.30;;;16.60;99.90;;;;;;12492359;28;20049;-43
2021/08/24 10:18:07;;;;;;;3.78;1.27;;;16.80;99.90;;;;;;12505834;28;20057;-44
2021/08/24 10:24:12;;;;;;;3.20;1.50;;;17.20;99.90;;;;;;12505285;28;20061;-43
2021/08/24 10:30:41;;;;;;;3.03;1.40;;;17.70;99.90;;;;;;12505536;28;20048;-44
2021/08/24 10:36:47;;;;;;;3.33;1.25;;;18.30;99.90;;;;;;12506683;28;20420;-46
2021/08/24 10:43:14;;;;;;;3.03;1.25;;;18.70;99.90;;;;;;12512659;28;20045;-44
2021/08/24 10:49:16;;;;;;;4.40;1.48;;;18.50;99.90;;;;;;12506400;28;20077;-44
2021/08/24 10:55:32;;;;;;;3.95;1.30;;;18.30;99.90;;;;;;12502135;28;20098;-44
2021/08/24 11:01:45;;;;;;;4.38;1.20;;;17.70;99.90;;;;;;12505010;28;20119;-43
2021/08/24 11:08:05;;;;;;;4.35;1.23;;;17.40;99.90;;;;;;12506517;28;20053;-43
2021/08/24 11:14:33;;;;;;;3.42;1.20;;;17.80;99.90;;;;;;12506134;28;20581;-43
2021/08/24 11:20:42;;;;;;;4.55;0.90;;;18.70;99.90;;;;;;12511204;28;20045;-44
2021/08/24 11:26:49;;;;;;;7.25;1.50;;;19.00;99.90;;;;;;12506454;28;20075;-44
2021/08/24 11:33:00;;;;;;;4.38;1.30;;;18.60;99.90;;;;;;12506816;28;20992;-44
2021/08/24 11:39:14;;;;;;;3.08;1.10;;;18.30;99.90;;;;;;12507806;28;20060;-43
2021/08/24 11:45:42;;;;;;;2.65;1.10;;;18.50;99.90;;;;;;12502033;28;20045;-44
2021/08/24 11:51:55;;;;;;;2.47;1.23;;;18.80;99.90;;;;;;12499451;28;20124;-44
2021/08/24 11:58:20;;;;;;;3.25;1.27;;;19.20;99.90;;;;;;12501629;28;20053;-43
2021/08/24 12:04:27;;;;;;;2.65;1.05;;;19.40;99.90;;;;;;12503470;28;20073;-45
2021/08/24 12:10:34;;;;;;;2.15;1.00;;;19.40;99.90;;;;;;12509360;28;20052;-43
2021/08/24 12:16:36;;;;;;;2.53;1.13;;;19.60;99.90;;;;;;12504126;28;20049;-44
2021/08/24 12:22:57;;;;;;;2.75;1.10;;;20.00;99.90;;;;;;12520363;28;20052;-44
2021/08/24 12:29:31;;;;;;;2.67;1.00;;;19.80;99.90;;;;;;12507517;28;20480;-43
2021/08/24 12:35:38;;;;;;;2.42;1.00;;;19.30;99.90;;;;;;12520123;28;20092;-43
2021/08/24 12:41:42;;;;;;;2.97;0.93;;;18.80;99.90;;;;;;12517112;28;20141;-43
2021/08/24 12:47:48;;;;;;;1.80;0.90;;;18.90;99.90;;;;;;12521037;28;20060;-45
2021/08/24 12:53:53;;;;;;;2.00;0.85;;;19.30;99.90;;;;;;12513178;28;20049;-48
2021/08/24 13:00:09;;;;;;;3.53;1.45;;;19.80;99.90;;;;;;12515244;28;20107;-44
2021/08/24 13:06:30;;;;;;;3.92;1.00;;;19.90;99.90;;;;;;12514014;28;20061;-43
2021/08/24 13:12:42;;;;;;;2.33;1.00;;;20.50;99.90;;;;;;12515185;28;20079;-44
2021/08/24 13:18:55;;;;;;;2.50;0.95;;;19.80;99.90;;;;;;12512713;28;20048;-43
2021/08/24 13:24:57;;;;;;;2.07;0.87;;;20.00;99.90;;;;;;12517254;28;20471;-46
2021/08/24 13:31:33;;;;;;;3.30;1.02;;;19.60;99.90;;;;;;12511667;28;20132;-42
2021/08/24 13:37:41;;;;;;;2.42;1.20;;;19.20;99.90;;;;;;12510814;28;20045;-43
2021/08/24 13:43:52;;;;;;;4.22;1.00;;;19.40;99.90;;;;;;12512368;28;20163;-43
2021/08/24 13:49:57;;;;;;;1.90;0.80;;;19.60;99.90;;;;;;12512976;28;20653;-47
2021/08/24 13:56:02;;;;;;;3.40;1.05;;;20.20;99.90;;;;;;12509161;28;20041;-43
2021/08/24 14:02:09;;;;;;;5.32;1.55;;;19.80;99.90;;;;;;12507198;28;20091;-44
2021/08/24 14:08:14;;;;;;;3.45;1.05;;;19.60;99.90;;;;;;12505891;28;20056;-43
2021/08/24 14:14:42;;;;;;;2.22;1.20;;;19.10;99.90;;;;;;12515302;28;20098;-43
2021/08/24 14:20:48;;;;;;;4.85;1.25;;;18.90;99.90;;;;;;12510560;28;20135;-44
2021/08/24 14:26:54;;;;;;;3.15;1.23;;;18.70;99.90;;;;;;12508478;28;20045;-43
2021/08/24 14:33:13;;;;;;;3.30;1.10;;;18.70;99.90;;;;;;12510600;28;20464;-43
2021/08/24 14:39:27;;;;;;;2.90;1.30;;;19.20;99.90;;;;;;12510427;28;20053;-43
2021/08/24 14:45:31;;;;;;;3.67;1.52;;;19.80;99.90;;;;;;12506613;28;20106;-42
2021/08/24 14:51:41;;;;;;;3.58;1.40;;;19.70;99.90;;;;;;12511767;28;20131;-42
2021/08/24 14:57:55;;;;;;;4.78;1.25;;;20.40;99.90;;;;;;12508256;28;20049;-43
2021/08/24 15:04:07;;;;;;;3.10;1.27;;;20.30;99.90;;;;;;12511812;28;20770;-44
2021/08/24 15:10:09;;;;;;;3.00;1.38;;;19.90;99.90;;;;;;12508805;28;20084;-43
2021/08/24 15:16:30;;;;;;;3.42;1.48;;;20.40;99.90;;;;;;12512239;28;20048;-44
2021/08/24 15:22:32;;;;;;;3.67;1.83;;;20.40;99.90;;;;;;12513818;28;20052;-43
2021/08/24 15:28:34;;;;;;;3.55;1.42;;;19.40;99.90;;;;;;12506277;28;20049;-44
2021/08/24 15:34:40;;;;;;;5.75;1.40;;;19.60;99.90;;;;;;12505355;28;20048;-45
2021/08/24 15:40:45;;;;;;;4.38;1.50;;;20.50;99.90;;;;;;12504267;28;20464;-45
2021/08/24 15:46:50;;;;;;;3.90;2.20;;;20.90;99.90;;;;;;12506263;28;20102;-45
2021/08/24 15:52:52;;;;;;;5.15;2.10;;;19.80;99.90;;;;;;12519825;28;20086;-44
2021/08/24 15:58:54;;;;;;;4.07;1.83;;;19.30;99.90;;;;;;12520857;28;20481;-43
2021/08/24 16:04:57;;;;;;;4.15;2.00;;;19.50;99.90;;;;;;12522090;28;20397;-43
2021/08/24 16:10:58;;;;;;;5.38;1.92;;;19.30;99.90;;;;;;12521904;28;20053;-45
2021/08/24 16:17:03;;;;;;;5.20;2.42;;;19.30;99.90;;;;;;12515140;28;20057;-44
2021/08/24 16:23:14;;;;;;;4.55;2.20;;;19.80;99.90;;;;;;12517173;28;20122;-45
2021/08/24 16:29:17;;;;;;;4.78;2.28;;;20.00;99.90;;;;;;12522005;28;20502;-46
2021/08/24 16:35:33;;;;;;;4.63;2.25;;;20.30;99.90;;;;;;12519525;28;20487;-46
2021/08/24 16:41:37;;;;;;;5.22;2.35;;;20.50;99.90;;;;;;12515403;28;20470;-43
2021/08/24 16:47:39;;;;;;;6.47;2.60;;;20.70;99.90;;;;;;12516153;28;20049;-43
2021/08/24 16:53:41;;;;;;;5.53;2.90;;;20.40;99.90;;;;;;12517347;28;20473;-45
2021/08/24 16:59:44;;;;;;;9.10;2.60;;;20.00;99.90;;;;;;12515643;28;20139;-45
2021/08/24 17:05:48;;;;;;;5.22;2.72;;;20.00;99.90;;;;;;12516833;28;20461;-45
2021/08/24 17:11:51;;;;;;;8.25;2.90;;;19.70;99.90;;;;;;12516538;28;20052;-45
2021/08/24 17:17:53;;;;;;;6.22;2.97;;;19.70;99.90;;;;;;12515786;28;20057;-42
2021/08/24 17:23:55;;;;;;;5.15;2.70;;;19.80;99.90;;;;;;12516715;28;20091;-43
2021/08/24 17:29:58;;;;;;;5.28;2.47;;;19.90;99.90;;;;;;12520203;28;20417;-43
2021/08/24 17:36:01;;;;;;;6.33;2.80;;;19.60;99.90;;;;;;12516045;28;20053;-43
2021/08/24 17:42:05;;;;;;;5.43;2.53;;;19.00;99.90;;;;;;12519679;28;20102;-42
2021/08/24 17:48:14;;;;;;;;;;;18.80;99.90;;;;;;12518090;28;20126;-43
2021/08/24 17:54:16;;;;;;;5.38;2.63;;;18.80;99.90;;;;;;12518119;28;19966;-44
2021/08/24 18:00:19;;;;;;;5.65;2.78;;;18.80;99.90;;;;;;12513310;28;20568;-43
2021/08/24 18:06:39;;;;;;;6.28;2.85;;;18.80;99.90;;;;;;12519094;28;20135;-43
2021/08/24 18:12:40;;;;;;;5.55;2.38;;;18.70;99.90;;;;;;12517769;28;20049;-43
2021/08/24 18:18:42;;;;;;;5.78;2.72;;;18.50;99.90;;;;;;12519894;28;20190;-43
2021/08/24 18:24:44;;;;;;;9.75;3.55;;;18.30;99.90;;;;;;12509597;28;20159;-42
2021/08/24 18:30:49;;;;;;;5.18;2.65;;;18.30;99.90;;;;;;12509636;28;20124;-44
2021/08/24 18:36:51;;;;;;;6.50;2.72;;;18.00;99.90;;;;;;12505912;28;20056;-42
2021/08/24 18:42:56;;;;;;;5.05;2.55;;;17.80;99.90;;;;;;12503927;28;20558;-42
2021/08/24 18:48:58;;;;;;;6.15;2.90;;;17.60;99.90;;;;;;12504972;28;20053;-42
2021/08/24 18:55:00;;;;;;;7.30;3.08;;;17.40;99.90;;;;;;12508459;28;20087;-45
2021/08/24 19:01:41;;;;;;;4.43;2.40;;;17.30;99.90;;;;;;12501249;28;20416;-45
2021/08/24 19:07:44;;;;;;;6.78;2.90;;;17.20;99.90;;;;;;12487660;28;20053;-45
2021/08/24 19:13:45;;;;;;;5.97;2.88;;;17.00;99.90;;;;;;12495437;28;20114;-44
2021/08/24 19:19:47;;;;;;;6.95;3.25;;;16.80;99.90;;;;;;12496912;28;20449;-45
2021/08/24 19:25:54;;;;;;;6.50;3.20;;;16.70;99.90;;;;;;12501491;28;20125;-44
2021/08/24 19:31:55;;;;;;;10.30;3.78;;;16.60;99.90;;;;;;12498810;28;20057;-44
2021/08/24 19:37:58;;;;;;;10.25;4.45;;;16.40;99.90;;;;;;12499386;28;20052;-44
2021/08/24 19:44:00;;;;;;;8.38;4.55;;;16.30;99.90;;;;;;12483744;28;20121;-45
2021/08/24 19:50:03;;;;;;;8.63;3.95;;;16.10;99.90;;;;;;12497257;28;20053;-45
2021/08/24 19:56:06;;;;;;;9.82;4.25;;;16.00;99.90;;;;;;12503639;28;20491;-44
2021/08/24 20:02:10;;;;;;;7.72;4.10;;;15.90;99.90;;;;;;12498630;28;20148;-45
2021/08/24 20:08:13;;;;;;;7.38;4.00;;;15.80;99.90;;;;;;12496738;28;20053;-45
2021/08/24 20:14:16;;;;;;;8.73;3.47;;;15.70;99.90;;;;;;12496676;28;20053;-44
2021/08/24 20:20:17;;;;;;;7.80;3.25;;;15.60;99.90;;;;;;12486329;28;20046;-44
2021/08/24 20:26:19;;;;;;;8.05;3.20;;;15.50;99.90;;;;;;12477468;28;20352;-45
2021/08/24 20:32:21;;;;;;;5.68;3.20;;;15.40;99.90;;;;;;12507569;28;20251;-44
2021/08/24 20:38:23;;;;;;;6.72;2.85;;;15.30;99.90;;;;;;12507469;28;20053;-45
2021/08/24 20:44:28;;;;;;;9.10;2.90;;;15.30;99.90;;;;;;12509459;28;20083;-45
2021/08/24 20:50:31;;;;;;;5.68;2.42;;;15.20;99.90;;;;;;12502076;28;20454;-44
2021/08/24 20:56:33;;;;;;;9.50;3.22;;;15.10;99.90;;;;;;12489323;28;20057;-45
2021/08/24 21:02:34;;;;;;;6.70;3.17;;;15.10;99.90;;;;;;12482772;28;20122;-44
2021/08/24 21:08:37;;;;;;;7.38;3.10;;;15.00;99.90;;;;;;12500729;28;20417;-44
2021/08/24 21:14:39;;;;;;;6.57;3.03;;;15.00;99.90;;;;;;12510872;28;20768;-45
2021/08/24 21:20:43;;;;;;;5.10;2.88;;;14.90;99.90;;;;;;12499774;28;20083;-45
2021/08/24 21:26:46;;;;;;;5.55;2.88;;;14.90;99.90;;;;;;12502195;28;20045;-44
2021/08/24 21:32:48;;;;;;;5.57;2.70;;;14.80;99.90;;;;;;12502942;28;20099;-43
2021/08/24 21:38:54;;;;;;;5.45;2.92;;;14.70;99.90;;;;;;12500605;28;20383;-44
2021/08/24 21:44:56;;;;;;;8.82;2.90;;;14.70;99.90;;;;;;12503600;28;20102;-44
2021/08/24 21:50:59;;;;;;;6.30;3.15;;;14.60;99.90;;;;;;12499701;28;20061;-44
2021/08/24 21:57:01;;;;;;;5.50;2.60;;;14.50;99.90;;;;;;12508474;28;20053;-44
2021/08/24 22:03:03;;;;;;;7.90;3.17;;;14.40;99.90;;;;;;12495191;28;20432;-44
2021/08/24 22:09:07;;;;;;;6.55;3.13;;;14.30;99.90;;;;;;12501859;28;20057;-45
2021/08/24 22:15:16;;;;;;;5.83;2.40;;;14.20;99.90;;;;;;12498950;28;20057;-44
2021/08/24 22:21:28;;;;;;;6.70;3.53;;;14.20;99.90;;;;;;12498760;28;20345;-44
2021/08/24 22:27:32;;;;;;;4.43;2.50;;;14.20;99.90;;;;;;12499181;28;20396;-44
2021/08/24 22:33:37;;;;;;;5.68;2.80;;;14.20;99.90;;;;;;12500366;28;20091;-45
2021/08/24 22:39:39;;;;;;;5.22;2.97;;;14.20;99.90;;;;;;12502552;28;20968;-44
2021/08/24 22:45:41;;;;;;;7.32;3.17;;;14.20;99.90;;;;;;12497435;28;20072;-44
2021/08/24 22:51:43;;;;;;;5.80;2.25;;;14.20;99.90;;;;;;12495284;28;20045;-44
2021/08/24 22:57:45;;;;;;;4.82;2.60;;;14.20;99.90;;;;;;12497441;28;20073;-44
2021/08/24 23:03:48;;;;;;;6.70;2.83;;;14.20;99.90;;;;;;12495942;28;20939;-44
2021/08/24 23:09:50;;;;;;;5.47;2.50;;;14.20;99.90;;;;;;12498528;28;20593;-44
2021/08/24 23:15:51;;;;;;;5.82;2.75;;;14.20;99.90;;;;;;12498039;28;20107;-44
2021/08/24 23:21:53;;;;;;;6.50;2.70;;;14.00;99.90;;;;;;12497627;28;20139;-44
2021/08/24 23:27:55;;;;;;;4.47;2.60;;;13.90;99.90;;;;;;12499890;28;20131;-44
2021/08/24 23:33:57;;;;;;;7.93;2.92;;;13.90;99.90;;;;;;12501665;28;20143;-43
2021/08/24 23:40:00;;;;;;;6.18;2.58;;;13.80;99.90;;;;;;12501936;28;20049;-47
2021/08/24 23:46:03;;;;;;;5.83;2.60;;;13.80;99.90;;;;;;12498089;28;20136;-45
2021/08/24 23:52:05;;;;;;;7.00;2.85;;;13.80;99.90;;;;;;12498648;28;20052;-44
2021/08/24 23:58:07;;;;;;;8.45;2.90;;;13.80;99.90;;;;;;12496699;28;20492;-44
